createdAt,value
2022-11-01T00:01:07.844Z,99627.66
2022-11-01T00:03:34.737Z,99626.81
2022-11-01T00:06:01.614Z,99631.97
2022-11-01T00:08:28.293Z,99620.78
2022-11-01T00:11:02.728Z,99621.63
2022-11-01T00:13:29.390Z,99625.06
2022-11-01T00:15:55.996Z,99619.88
2022-11-01T00:18:23.048Z,99621.63
2022-11-01T00:20:49.885Z,99630.25
2022-11-01T00:23:16.368Z,99633.69
2022-11-01T00:25:42.868Z,99639.72
2022-11-01T00:28:09.591Z,99666.50
2022-11-01T00:30:37.465Z,99699.34
2022-11-01T00:33:04.923Z,99756.28
2022-11-01T00:35:32.445Z,99784.75
2022-11-01T00:38:00.094Z,99829.72
2022-11-01T00:40:27.267Z,99885.69
2022-11-01T00:42:53.954Z,99916.91
2022-11-01T00:45:20.744Z,99947.88
2022-11-01T00:47:48.432Z,99969.41
2022-11-01T00:50:15.284Z,99994.50
2022-11-01T00:52:41.859Z,100012.84
2022-11-01T00:55:09.476Z,99983.59
2022-11-01T00:57:36.048Z,99976.75
2022-11-01T01:00:04.265Z,99958.50
2022-11-01T01:02:30.980Z,99992.34
2022-11-01T01:04:57.719Z,99986.00
2022-11-01T01:07:24.400Z,99963.59
2022-11-01T01:09:50.977Z,99988.78
2022-11-01T01:12:17.527Z,99960.13
2022-11-01T01:14:43.977Z,99999.25
2022-11-01T01:17:10.838Z,100045.94
2022-11-01T01:19:37.457Z,100060.03
2022-11-01T01:22:04.049Z,100061.13
2022-11-01T01:24:32.036Z,100028.25
2022-11-01T01:26:58.846Z,100004.94
2022-11-01T01:29:26.241Z,99989.38
2022-11-01T01:31:52.798Z,99991.13
2022-11-01T01:34:19.527Z,99980.84
2022-11-01T01:36:46.862Z,99987.09
2022-11-01T01:39:13.641Z,100014.38
2022-11-01T01:41:58.354Z,100027.38
2022-11-01T01:45:03.866Z,100049.75
2022-11-01T01:47:33.652Z,100060.38
2022-11-01T01:50:20.216Z,100071.66
2022-11-01T01:52:56.696Z,100085.50
2022-11-01T01:55:28.838Z,100044.53
2022-11-01T01:57:57.732Z,100054.41
2022-11-01T02:00:25.411Z,100080.00
2022-11-01T02:02:52.131Z,100100.88
2022-11-01T02:05:44.691Z,100130.94
2022-11-01T02:08:13.271Z,100132.91
2022-11-01T02:10:39.985Z,100163.72
2022-11-01T02:13:15.796Z,100197.25
2022-11-01T02:16:11.187Z,100188.94
2022-11-01T02:18:40.450Z,100195.66
2022-11-01T02:21:25.247Z,100178.16
2022-11-01T02:24:04.851Z,100181.53
2022-11-01T02:26:50.033Z,100206.72
2022-11-01T02:29:47.478Z,100244.63
2022-11-01T02:32:46.544Z,100242.00
2022-11-01T02:35:26.507Z,100247.38
2022-11-01T02:38:07.808Z,100262.69
2022-11-01T02:40:50.417Z,100281.50
2022-11-01T02:43:22.152Z,100282.22
2022-11-01T02:45:50.686Z,100282.31
2022-11-01T02:48:21.095Z,100285.81
2022-11-01T02:50:54.295Z,100289.16
2022-11-01T02:53:20.826Z,100297.09
2022-11-01T02:55:47.359Z,100296.94
2022-11-01T02:58:27.450Z,100289.44
2022-11-01T03:00:55.652Z,100302.19
2022-11-01T03:03:27.745Z,100303.19
2022-11-01T03:06:00.494Z,100304.03
2022-11-01T03:09:00.134Z,100313.38
2022-11-01T03:11:36.178Z,100319.47
2022-11-01T03:14:08.297Z,100328.72
2022-11-01T03:16:37.784Z,100317.44
2022-11-01T03:19:22.680Z,100327.00
2022-11-01T03:22:03.824Z,100320.41
2022-11-01T03:24:38.792Z,100318.41
2022-11-01T03:27:28.034Z,100316.88
2022-11-01T03:30:03.122Z,100308.22
2022-11-01T03:32:36.338Z,100304.78
2022-11-01T03:35:05.148Z,100318.31
2022-11-01T03:37:33.848Z,100313.38
2022-11-01T03:40:04.539Z,100307.94
2022-11-01T03:42:32.362Z,100315.78
2022-11-01T03:45:04.210Z,100327.19
2022-11-01T03:47:30.772Z,100326.41
2022-11-01T03:50:21.207Z,100308.50
2022-11-01T03:52:48.908Z,100300.38
2022-11-01T03:55:20.555Z,100325.41
2022-11-01T03:57:51.080Z,100337.41
2022-11-01T04:00:31.874Z,100335.72
2022-11-01T04:03:00.093Z,100333.97
2022-11-01T04:05:30.001Z,100348.81
2022-11-01T04:07:56.547Z,100338.38
2022-11-01T04:10:24.928Z,100332.25
2022-11-01T04:12:52.889Z,100334.28
2022-11-01T04:15:40.224Z,100337.53
2022-11-01T04:21:18.057Z,100349.06
2022-11-01T04:23:45.410Z,100361.78
2022-11-01T04:26:17.186Z,100348.25
2022-11-01T04:28:57.145Z,100346.28
2022-11-01T04:31:29.009Z,100349.63
2022-11-01T04:33:56.665Z,100336.19
2022-11-01T04:36:24.232Z,100319.78
2022-11-01T04:38:55.636Z,100320.75
2022-11-01T04:41:24.482Z,100314.97
2022-11-01T04:43:53.915Z,100328.69
2022-11-01T04:46:20.472Z,100330.63
2022-11-01T04:48:46.958Z,100315.97
2022-11-01T04:51:13.656Z,100324.75
2022-11-01T04:53:40.332Z,100334.06
2022-11-01T04:56:09.032Z,100330.78
2022-11-01T04:58:40.018Z,100329.97
2022-11-01T05:01:10.015Z,100337.78
2022-11-01T05:03:36.873Z,100343.50
2022-11-01T05:06:03.435Z,100352.19
2022-11-01T05:08:30.053Z,100350.56
2022-11-01T05:10:56.783Z,100336.78
2022-11-01T05:13:24.149Z,100339.66
2022-11-01T05:16:06.682Z,100348.88
2022-11-01T05:18:40.803Z,100358.00
2022-11-01T05:21:07.272Z,100373.28
2022-11-01T05:23:33.740Z,100363.06
2022-11-01T05:26:00.229Z,100357.03
2022-11-01T05:28:26.714Z,100353.50
2022-11-01T05:30:53.361Z,100355.25
2022-11-01T05:33:19.868Z,100353.53
2022-11-01T05:35:46.401Z,100354.56
2022-11-01T05:38:12.952Z,100361.19
2022-11-01T05:40:39.452Z,100353.50
2022-11-01T05:43:06.034Z,100361.19
2022-11-01T05:45:32.608Z,100352.59
2022-11-01T05:48:03.597Z,100358.59
2022-11-01T05:50:30.921Z,100356.09
2022-11-01T05:53:07.791Z,100349.78
2022-11-01T05:55:35.088Z,100352.56
2022-11-01T05:58:01.606Z,100361.09
2022-11-01T06:00:28.197Z,100360.19
2022-11-01T06:03:00.491Z,100360.19
2022-11-01T06:05:28.272Z,100361.88
2022-11-01T06:07:54.891Z,100357.81
2022-11-01T06:10:21.759Z,100361.06
2022-11-01T06:12:48.385Z,100359.28
2022-11-01T06:15:14.999Z,100360.16
2022-11-01T06:17:41.535Z,100362.06
2022-11-01T06:20:08.610Z,100364.44
2022-11-01T06:22:36.330Z,100367.00
2022-11-01T06:25:02.871Z,100379.94
2022-11-01T06:27:29.568Z,100373.41
2022-11-01T06:29:56.074Z,100376.09
2022-11-01T06:32:22.639Z,100378.94
2022-11-01T06:34:49.191Z,100385.09
2022-11-01T06:37:15.723Z,100379.31
2022-11-01T06:39:42.243Z,100387.06
2022-11-01T06:42:10.078Z,100401.50
2022-11-01T06:44:36.681Z,100393.47
2022-11-01T06:47:03.784Z,100398.78
2022-11-01T06:49:30.658Z,100399.88
2022-11-01T06:51:57.761Z,100405.25
2022-11-01T06:54:24.383Z,100410.34
2022-11-01T06:56:50.847Z,100406.94
2022-11-01T06:59:17.311Z,100407.03
2022-11-01T07:01:44.341Z,100409.91
2022-11-01T07:06:42.405Z,100340.19
2022-11-01T07:09:09.125Z,100304.06
2022-11-01T07:11:35.606Z,100306.63
2022-11-01T07:14:02.462Z,100305.03
2022-11-01T07:16:29.391Z,100296.66
2022-11-01T07:18:56.008Z,100315.28
2022-11-01T07:21:22.945Z,100336.84
2022-11-01T07:23:49.667Z,100322.16
2022-11-01T07:26:16.489Z,100300.78
2022-11-01T07:28:42.981Z,100306.66
2022-11-01T07:31:09.492Z,100337.34
2022-11-01T07:33:36.279Z,100341.56
2022-11-01T07:36:04.317Z,100341.53
2022-11-01T07:38:32.130Z,100354.63
2022-11-01T07:40:58.698Z,100365.69
2022-11-01T07:43:25.192Z,100347.75
2022-11-01T07:45:51.838Z,100336.66
2022-11-01T07:48:19.767Z,100336.69
2022-11-01T07:50:46.621Z,100343.63
2022-11-01T07:53:19.574Z,100328.34
2022-11-01T07:55:46.648Z,100346.78
2022-11-01T07:58:14.716Z,100367.72
2022-11-01T08:00:42.378Z,100404.66
2022-11-01T08:03:12.417Z,100403.00
2022-11-01T08:05:39.515Z,100416.09
2022-11-01T08:08:07.288Z,100425.72
2022-11-01T08:10:34.837Z,100426.41
2022-11-01T08:13:03.786Z,100418.69
2022-11-01T08:15:30.748Z,100431.59
2022-11-01T08:17:58.083Z,100444.63
2022-11-01T08:20:26.168Z,100449.06
2022-11-01T08:22:53.826Z,100445.59
2022-11-01T08:25:21.070Z,100457.50
2022-11-01T08:27:47.686Z,100459.16
2022-11-01T08:30:15.709Z,100453.19
2022-11-01T08:32:42.224Z,100475.59
2022-11-01T08:35:09.308Z,100484.00
2022-11-01T08:37:35.793Z,100462.69
2022-11-01T08:40:03.543Z,100476.59
2022-11-01T08:42:30.368Z,100469.78
2022-11-01T08:44:56.872Z,100457.84
2022-11-01T08:47:23.371Z,100463.16
2022-11-01T08:49:49.865Z,100462.34
2022-11-01T08:52:16.449Z,100458.03
2022-11-01T08:54:42.948Z,100461.53
2022-11-01T08:57:09.553Z,100469.22
2022-11-01T08:59:36.197Z,100483.16
2022-11-01T09:02:02.827Z,100493.63
2022-11-01T09:04:29.802Z,100512.41
2022-11-01T09:06:56.404Z,100512.75
2022-11-01T09:09:22.945Z,100520.78
2022-11-01T09:11:49.798Z,100530.31
2022-11-01T09:14:16.340Z,100521.69
2022-11-01T09:16:42.830Z,100530.31
2022-11-01T09:19:09.352Z,100532.84
2022-11-01T09:21:36.512Z,100545.91
2022-11-01T09:24:03.237Z,100537.25
2022-11-01T09:26:29.854Z,100541.50
2022-11-01T09:28:58.581Z,100539.88
2022-11-01T09:31:25.705Z,100545.22
2022-11-01T09:33:57.829Z,100552.31
2022-11-01T09:36:25.257Z,100557.41
2022-11-01T09:38:51.787Z,100551.75
2022-11-01T09:41:47.202Z,100556.75
2022-11-01T09:44:23.385Z,100561.16
2022-11-01T09:46:55.451Z,100560.88
2022-11-01T09:49:32.436Z,100556.47
2022-11-01T09:51:59.591Z,100562.59
2022-11-01T09:54:27.662Z,100563.50
2022-11-01T09:57:26.733Z,100556.53
2022-11-01T10:00:05.460Z,100559.31
2022-11-01T10:03:04.937Z,100556.47
2022-11-01T10:06:12.645Z,100545.91
2022-11-01T10:08:48.081Z,100553.69
2022-11-01T10:11:51.257Z,100543.97
2022-11-01T10:14:49.180Z,100544.84
2022-11-01T10:17:23.731Z,100550.69
2022-11-01T10:19:50.913Z,100544.91
2022-11-01T10:22:30.264Z,100547.50
2022-11-01T10:25:04.650Z,100553.22
2022-11-01T10:27:53.804Z,100555.72
2022-11-01T10:30:20.758Z,100552.38
2022-11-01T10:32:50.522Z,100555.06
2022-11-01T10:35:27.260Z,100559.19
2022-11-01T10:38:18.884Z,100561.91
2022-11-01T10:40:54.970Z,100559.31
2022-11-01T10:43:25.428Z,100567.06
2022-11-01T10:45:55.874Z,100558.63
2022-11-01T10:48:33.618Z,100558.09
2022-11-01T10:51:03.823Z,100559.13
2022-11-01T10:53:37.031Z,100554.13
2022-11-01T10:56:12.437Z,100560.25
2022-11-01T10:58:46.799Z,100554.31
2022-11-01T11:01:20.195Z,100556.88
2022-11-01T11:03:48.166Z,100550.19
2022-11-01T11:06:19.030Z,100553.63
2022-11-01T11:08:51.247Z,100554.63
2022-11-01T11:11:22.461Z,100550.41
2022-11-01T11:13:53.682Z,100553.72
2022-11-01T11:16:35.518Z,100549.50
2022-11-01T11:19:08.369Z,100552.22
2022-11-01T11:21:35.893Z,100545.41
2022-11-01T11:24:03.535Z,100542.00
2022-11-01T11:26:39.250Z,100545.50
2022-11-01T11:29:06.185Z,100547.97
2022-11-01T11:31:34.977Z,100550.69
2022-11-01T11:34:20.091Z,100547.19
2022-11-01T11:36:49.906Z,100554.97
2022-11-01T11:39:35.725Z,100560.97
2022-11-01T11:42:19.113Z,100549.41
2022-11-01T11:44:56.805Z,100554.56
2022-11-01T11:47:34.559Z,100548.56
2022-11-01T11:50:15.949Z,100547.69
2022-11-01T11:52:42.737Z,100536.34
2022-11-01T11:55:34.382Z,100543.22
2022-11-01T11:58:01.860Z,100538.91
2022-11-01T12:00:29.890Z,100529.50
2022-11-01T12:02:56.546Z,100536.38
2022-11-01T12:05:23.859Z,100528.78
2022-11-01T12:07:53.024Z,100536.69
2022-11-01T12:10:31.480Z,100529.78
2022-11-01T12:12:58.620Z,100532.38
2022-11-01T12:15:36.971Z,100530.72
2022-11-01T12:18:27.056Z,100530.69
2022-11-01T12:20:53.652Z,100522.09
2022-11-01T12:23:35.078Z,100512.81
2022-11-01T12:26:06.268Z,100513.78
2022-11-01T12:28:40.485Z,100513.00
2022-11-01T12:31:12.483Z,100503.53
2022-11-01T12:33:47.281Z,100506.22
2022-11-01T12:36:15.288Z,100506.25
2022-11-01T12:38:51.306Z,100498.53
2022-11-01T12:41:17.763Z,100489.88
2022-11-01T12:44:01.294Z,100491.63
2022-11-01T12:46:41.425Z,100490.84
2022-11-01T12:49:30.710Z,100484.94
2022-11-01T12:52:26.316Z,100481.53
2022-11-01T12:55:04.280Z,100486.75
2022-11-01T12:57:32.407Z,100477.22
2022-11-01T13:00:00.544Z,100469.41
2022-11-01T13:02:58.610Z,100466.75
2022-11-01T13:05:34.600Z,100461.56
2022-11-01T13:08:07.254Z,100458.09
2022-11-01T13:10:44.045Z,100458.84
2022-11-01T13:13:36.721Z,100453.66
2022-11-01T13:16:09.252Z,100457.19
2022-11-01T13:18:44.701Z,100456.22
2022-11-01T13:21:23.285Z,100456.19
2022-11-01T13:24:07.472Z,100454.47
2022-11-01T13:26:40.053Z,100455.22
2022-11-01T13:29:17.737Z,100453.50
2022-11-01T13:31:55.327Z,100456.94
2022-11-01T13:34:24.870Z,100453.50
2022-11-01T13:37:05.980Z,100456.94
2022-11-01T13:39:54.355Z,100455.16
2022-11-01T13:42:28.201Z,100452.50
2022-11-01T13:45:08.015Z,100450.72
2022-11-01T13:48:14.447Z,100450.72
2022-11-01T13:50:44.780Z,100462.63
2022-11-01T13:53:36.615Z,100459.13
2022-11-01T13:56:29.077Z,100451.50
2022-11-01T13:58:56.270Z,100442.72
2022-11-01T14:01:28.853Z,100451.34
2022-11-01T14:04:22.065Z,100445.31
2022-11-01T14:07:11.269Z,100452.19
2022-11-01T14:09:48.865Z,100440.13
2022-11-01T14:12:34.143Z,100441.00
2022-11-01T14:15:24.937Z,100447.06
2022-11-01T14:17:57.791Z,100454.78
2022-11-01T14:20:31.492Z,100453.06
2022-11-01T14:22:59.109Z,100453.94
2022-11-01T14:25:30.881Z,100453.03
2022-11-01T14:28:16.202Z,100456.47
2022-11-01T14:30:46.297Z,100453.88
2022-11-01T14:33:18.712Z,100449.56
2022-11-01T14:35:52.197Z,100460.84
2022-11-01T14:38:26.821Z,100454.78
2022-11-01T14:40:58.474Z,100446.19
2022-11-01T14:43:32.714Z,100439.31
2022-11-01T14:46:09.654Z,100444.53
2022-11-01T14:48:43.162Z,100441.13
2022-11-01T14:51:26.635Z,100439.44
2022-11-01T14:54:02.609Z,100435.97
2022-11-01T14:56:38.405Z,100439.47
2022-11-01T14:59:24.280Z,100449.84
2022-11-01T15:02:02.945Z,100448.13
2022-11-01T15:04:33.350Z,100446.38
2022-11-01T15:07:00.721Z,100445.53
2022-11-01T15:09:31.704Z,100449.84
2022-11-01T15:12:08.557Z,100447.25
2022-11-01T15:14:40.381Z,100442.94
2022-11-01T15:17:16.925Z,100445.53
2022-11-01T15:19:45.360Z,100450.66
2022-11-01T15:22:17.673Z,100448.13
2022-11-01T15:24:47.528Z,100456.78
2022-11-01T15:27:17.608Z,100450.72
2022-11-01T15:29:44.172Z,100460.25
2022-11-01T15:32:30.332Z,100459.41
2022-11-01T15:35:18.836Z,100457.72
2022-11-01T15:37:50.350Z,100460.94
2022-11-01T15:40:29.748Z,100462.63
2022-11-01T15:43:01.767Z,100464.34
2022-11-01T15:45:35.727Z,100460.88
2022-11-01T15:48:28.388Z,100458.25
2022-11-01T15:51:00.770Z,100460.84
2022-11-01T15:53:30.634Z,100469.50
2022-11-01T15:56:02.579Z,100470.34
2022-11-01T15:58:36.249Z,100472.94
2022-11-01T16:01:10.456Z,100469.53
2022-11-01T16:03:46.751Z,100466.97
2022-11-01T16:06:19.464Z,100467.88
2022-11-01T16:08:57.876Z,100467.97
2022-11-01T16:11:28.100Z,100473.22
2022-11-01T16:14:24.607Z,100471.56
2022-11-01T16:17:00.213Z,100471.59
2022-11-01T16:19:38.134Z,100467.22
2022-11-01T16:22:24.944Z,100468.97
2022-11-01T16:25:00.813Z,100472.41
2022-11-01T16:27:28.401Z,100474.06
2022-11-01T16:29:55.001Z,100471.41
2022-11-01T16:32:30.865Z,100481.75
2022-11-01T16:34:59.235Z,100473.97
2022-11-01T16:37:29.853Z,100475.69
2022-11-01T16:39:58.326Z,100473.84
2022-11-01T16:42:24.989Z,100479.88
2022-11-01T16:44:56.358Z,100471.97
2022-11-01T16:47:23.295Z,100484.00
2022-11-01T16:49:56.738Z,100484.78
2022-11-01T16:52:23.275Z,100492.44
2022-11-01T16:54:53.112Z,100493.22
2022-11-01T16:57:28.178Z,100489.69
2022-11-01T16:59:55.124Z,100492.28
2022-11-01T17:02:26.982Z,100498.25
2022-11-01T17:05:20.857Z,100499.00
2022-11-01T17:07:47.978Z,100504.06
2022-11-01T17:10:20.931Z,100494.56
2022-11-01T17:12:47.648Z,100499.63
2022-11-01T17:15:15.591Z,100509.91
2022-11-01T17:17:44.156Z,100518.50
2022-11-01T17:20:17.090Z,100518.38
2022-11-01T17:22:43.927Z,100517.44
2022-11-01T17:25:16.663Z,100519.09
2022-11-01T17:27:43.841Z,100520.78
2022-11-01T17:30:10.779Z,100528.53
2022-11-01T17:32:37.380Z,100524.22
2022-11-01T17:35:04.473Z,100531.91
2022-11-01T17:37:33.148Z,100531.84
2022-11-01T17:40:01.700Z,100534.38
2022-11-01T17:42:28.400Z,100535.31
2022-11-01T17:44:54.979Z,100530.16
2022-11-01T17:47:21.455Z,100533.63
2022-11-01T17:49:47.933Z,100536.13
2022-11-01T17:52:14.512Z,100547.31
2022-11-01T17:54:41.028Z,100542.09
2022-11-01T17:57:07.636Z,100548.16
2022-11-01T17:59:35.121Z,100556.75
2022-11-01T18:02:01.788Z,100552.47
2022-11-01T18:04:32.613Z,100558.50
2022-11-01T18:07:04.161Z,100551.66
2022-11-01T18:09:31.189Z,100544.72
2022-11-01T18:12:06.878Z,100547.31
2022-11-01T18:17:29.277Z,100557.75
2022-11-01T18:20:34.469Z,100563.03
2022-11-01T18:23:05.717Z,100557.09
2022-11-01T18:25:42.159Z,100552.81
2022-11-01T18:28:18.553Z,100558.84
2022-11-01T18:30:56.589Z,100555.38
2022-11-01T18:33:44.674Z,100562.31
2022-11-01T18:36:14.074Z,100564.06
2022-11-01T18:38:57.606Z,100558.91
2022-11-01T18:41:24.131Z,100559.88
2022-11-01T18:43:54.252Z,100557.38
2022-11-01T18:46:26.648Z,100559.13
2022-11-01T18:49:10.087Z,100547.94
2022-11-01T18:51:39.027Z,100551.38
2022-11-01T18:54:08.802Z,100557.44
2022-11-01T18:56:44.093Z,100564.41
2022-11-01T18:59:17.820Z,100558.31
2022-11-01T19:01:44.523Z,100559.13
2022-11-01T19:04:21.666Z,100563.50
2022-11-01T19:06:49.017Z,100558.31
2022-11-01T19:09:25.555Z,100557.41
2022-11-01T19:12:10.729Z,100561.81
2022-11-01T19:14:40.098Z,100556.53
2022-11-01T19:17:18.924Z,100559.09
2022-11-01T19:19:47.087Z,100561.50
2022-11-01T19:22:39.053Z,100563.06
2022-11-01T19:25:18.639Z,100565.75
2022-11-01T19:27:46.439Z,100578.41
2022-11-01T19:30:33.381Z,100569.00
2022-11-01T19:33:18.579Z,100572.28
2022-11-01T19:35:45.108Z,100569.47
2022-11-01T19:38:15.723Z,100567.88
2022-11-01T19:40:44.057Z,100565.22
2022-11-01T19:43:16.934Z,100562.50
2022-11-01T19:45:50.068Z,100562.47
2022-11-01T19:48:22.319Z,100564.13
2022-11-01T19:50:49.109Z,100558.06
2022-11-01T19:53:21.188Z,100556.38
2022-11-01T19:56:01.234Z,100549.53
2022-11-01T19:58:38.907Z,100557.41
2022-11-01T20:01:09.137Z,100548.78
2022-11-01T20:03:39.437Z,100552.38
2022-11-01T20:06:31.323Z,100552.47
2022-11-01T20:09:04.254Z,100553.31
2022-11-01T20:11:32.758Z,100552.63
2022-11-01T20:13:59.831Z,100551.72
2022-11-01T20:16:26.484Z,100556.00
2022-11-01T20:18:53.161Z,100559.53
2022-11-01T20:21:21.035Z,100552.59
2022-11-01T20:23:47.510Z,100557.75
2022-11-01T20:26:14.080Z,100552.63
2022-11-01T20:28:40.653Z,100569.19
2022-11-01T20:31:07.193Z,100576.75
2022-11-01T20:33:34.013Z,100582.78
2022-11-01T20:36:01.205Z,100594.81
2022-11-01T20:38:27.723Z,100602.50
2022-11-01T20:40:54.670Z,100612.72
2022-11-01T20:43:21.632Z,100615.31
2022-11-01T20:45:48.226Z,100617.50
2022-11-01T20:48:15.314Z,100625.72
2022-11-01T20:50:41.848Z,100616.78
2022-11-01T20:53:08.653Z,100613.16
2022-11-01T20:55:35.399Z,100616.91
2022-11-01T20:58:02.678Z,100622.06
2022-11-01T21:00:29.543Z,100622.16
2022-11-01T21:02:57.807Z,100619.03
2022-11-01T21:05:25.512Z,100618.19
2022-11-01T21:08:25.327Z,100617.38
2022-11-01T21:11:02.475Z,100622.53
2022-11-01T21:13:37.516Z,100622.38
2022-11-01T21:16:14.011Z,100623.94
2022-11-01T21:18:44.574Z,100622.25
2022-11-01T21:21:13.976Z,100635.88
2022-11-01T21:23:43.486Z,100641.91
2022-11-01T21:26:20.160Z,100630.72
2022-11-01T21:28:54.190Z,100630.38
2022-11-01T21:31:25.647Z,100633.47
2022-11-01T21:33:57.675Z,100639.47
2022-11-01T21:36:40.512Z,100642.09
2022-11-01T21:39:15.078Z,100640.34
2022-11-01T21:41:46.950Z,100640.94
2022-11-01T21:44:21.134Z,100635.00
2022-11-01T21:46:50.884Z,100642.63
2022-11-01T21:49:26.498Z,100645.88
2022-11-01T21:51:54.736Z,100644.31
2022-11-01T21:54:21.955Z,100647.78
2022-11-01T21:56:48.614Z,100646.84
2022-11-01T21:59:15.223Z,100655.41
2022-11-01T22:01:45.501Z,100660.75
2022-11-01T22:04:13.777Z,100660.81
2022-11-01T22:06:41.099Z,100661.63
2022-11-01T22:09:08.825Z,100663.34
2022-11-01T22:11:36.513Z,100668.47
2022-11-01T22:14:03.961Z,100669.31
2022-11-01T22:16:30.753Z,100666.03
2022-11-01T22:18:57.384Z,100673.75
2022-11-01T22:21:24.003Z,100677.19
2022-11-01T22:23:50.548Z,100681.59
2022-11-01T22:26:17.064Z,100675.66
2022-11-01T22:28:43.856Z,100685.91
2022-11-01T22:31:10.530Z,100680.69
2022-11-01T22:33:37.026Z,100678.25
2022-11-01T22:36:04.014Z,100691.16
2022-11-01T22:38:41.867Z,100680.84
2022-11-01T22:41:13.434Z,100690.38
2022-11-01T22:43:42.387Z,100685.06
2022-11-01T22:46:38.594Z,100694.59
2022-11-01T22:49:19.448Z,100693.72
2022-11-01T22:51:50.464Z,100695.44
2022-11-01T22:54:40.115Z,100695.47
2022-11-01T22:57:09.509Z,100690.47
2022-11-01T22:59:52.611Z,100697.44
2022-11-01T23:02:27.081Z,100693.13
2022-11-01T23:05:01.807Z,100698.28
2022-11-01T23:07:34.722Z,100696.53
2022-11-01T23:10:07.753Z,100691.16
2022-11-01T23:12:55.369Z,100683.34
2022-11-01T23:15:30.862Z,100687.88
2022-11-01T23:18:01.994Z,100685.03
2022-11-01T23:20:29.943Z,100689.41
2022-11-01T23:22:56.478Z,100687.97
2022-11-01T23:25:23.065Z,100687.19
2022-11-01T23:27:49.553Z,100690.63
2022-11-01T23:30:16.097Z,100691.06
2022-11-01T23:32:44.320Z,100677.84
2022-11-01T23:35:19.390Z,100684.84
2022-11-01T23:37:46.449Z,100678.75
2022-11-01T23:40:19.493Z,100673.19
2022-11-01T23:42:47.705Z,100657.38
2022-11-01T23:45:34.259Z,100642.81
2022-11-01T23:48:01.112Z,100616.84
2022-11-01T23:50:37.005Z,100601.75
2022-11-01T23:53:06.495Z,100604.94
2022-11-01T23:55:59.492Z,100615.25
2022-11-01T23:58:31.239Z,100622.69
